Time;durP1;ratioP1;P1;durP2;ratioP2;P2;SDS_P1;SDS_P2;PMS_P1;PMS_P2;Temp;Humidity;BMP_temperature;BMP_pressure;BME280_temperature;BME280_humidity;BME280_pressure;Samples;Min_cycle;Max_cycle;Signal;HPM_P1;HPM_P2
2023/02/07 00:02:00;;;;;;;97.53;7.67;;;-1.00;99.90;;;;;;5063785;28;20029;-67
2023/02/07 00:04:26;;;;;;;47.87;4.03;;;-1.10;99.90;;;;;;5057910;28;20025;-71
2023/02/07 00:06:52;;;;;;;319.47;14.80;;;-1.20;99.90;;;;;;5061591;28;20024;-73
2023/02/07 00:09:18;;;;;;;345.53;15.00;;;-1.40;99.90;;;;;;5056128;28;20021;-66
2023/02/07 00:11:43;;;;;;;69.63;4.30;;;-1.50;99.90;;;;;;5060997;28;20037;-66
2023/02/07 00:14:11;;;;;;;4.47;2.07;;;-1.40;99.90;;;;;;5054813;28;20029;-68
2023/02/07 00:16:37;;;;;;;34.85;2.67;;;-1.40;99.90;;;;;;5060286;28;20024;-65
2023/02/07 00:19:03;;;;;;;45.80;3.05;;;-1.40;99.90;;;;;;5057513;28;20032;-65
2023/02/07 00:21:29;;;;;;;96.50;5.40;;;-1.30;99.90;;;;;;5056034;28;20025;-66
2023/02/07 00:23:55;;;;;;;46.23;3.13;;;-1.20;99.90;;;;;;5053387;28;20075;-71
2023/02/07 00:26:22;;;;;;;95.80;4.93;;;-1.10;99.90;;;;;;5057666;28;20786;-65
2023/02/07 00:28:49;;;;;;;21.52;2.67;;;-0.90;99.90;;;;;;5056792;28;20039;-66
2023/02/07 00:31:16;;;;;;;;;;;-0.80;99.90;;;;;;5059268;28;20078;-70
2023/02/07 00:33:43;;;;;;;31.58;3.33;;;-0.90;99.90;;;;;;5056405;28;20195;-71
2023/02/07 00:36:18;;;;;;;4.85;3.10;;;-0.90;99.90;;;;;;5061832;28;20111;-68
2023/02/07 00:38:44;;;;;;;9.63;2.97;;;-0.90;99.90;;;;;;5056194;28;20079;-73
2023/02/07 00:41:13;;;;;;;;;;;-0.90;99.90;;;;;;5059704;28;20044;-65
2023/02/07 00:43:40;;;;;;;4.93;2.58;;;-1.00;99.90;;;;;;5059474;28;19909;-70
2023/02/07 00:46:06;;;;;;;16.33;2.45;;;-1.00;99.90;;;;;;5059305;28;20040;-66
2023/02/07 00:48:32;;;;;;;3.07;2.33;;;-1.00;99.90;;;;;;5055918;28;20410;-65
2023/02/07 00:50:58;;;;;;;14.97;1.93;;;-0.90;99.90;;;;;;5061726;28;20021;-72
2023/02/07 00:53:25;;;;;;;6.38;2.60;;;-0.90;99.90;;;;;;5059583;28;20032;-70
2023/02/07 00:55:51;;;;;;;19.48;3.33;;;-0.90;99.90;;;;;;5055385;28;20422;-73
2023/02/07 00:58:17;;;;;;;4.80;3.10;;;-0.90;99.90;;;;;;5059635;28;20175;-71
2023/02/07 01:00:42;;;;;;;66.67;3.73;;;-1.00;99.90;;;;;;5039116;28;20056;-71
2023/02/07 01:03:08;;;;;;;205.10;10.80;;;-1.00;99.90;;;;;;5055721;28;20429;-66
2023/02/07 01:05:35;;;;;;;19.58;3.65;;;-0.90;99.90;;;;;;5053676;28;20030;-69
2023/02/07 01:08:01;;;;;;;31.83;3.85;;;-1.00;99.90;;;;;;5056745;28;20033;-66
2023/02/07 01:10:27;;;;;;;13.87;3.37;;;-1.00;99.90;;;;;;5057516;28;20066;-66
2023/02/07 01:12:52;;;;;;;20.67;3.10;;;-1.10;99.90;;;;;;5040315;28;20156;-71
2023/02/07 01:15:18;;;;;;;12.97;3.93;;;-1.10;99.90;;;;;;5049282;28;20029;-66
2023/02/07 01:17:44;;;;;;;9.20;3.10;;;-1.10;99.90;;;;;;5048851;28;20037;-71
2023/02/07 01:20:11;;;;;;;7.50;2.90;;;-1.10;99.90;;;;;;5039391;28;21738;-68
2023/02/07 01:22:38;;;;;;;8.00;3.22;;;-1.10;99.90;;;;;;5058103;28;20043;-69
2023/02/07 01:25:04;;;;;;;;;;;-1.10;99.90;;;;;;5055029;28;20219;-67
2023/02/07 01:27:30;;;;;;;4.20;3.00;;;-1.10;99.90;;;;;;5058156;28;19912;-66
2023/02/07 01:29:55;;;;;;;9.93;3.73;;;-1.10;99.90;;;;;;5061588;28;20039;-70
2023/02/07 01:32:21;;;;;;;5.47;3.10;;;-1.10;99.90;;;;;;5061485;28;20039;-68
2023/02/07 01:34:47;;;;;;;8.93;2.93;;;-1.20;99.90;;;;;;5055822;28;20041;-65
2023/02/07 01:37:12;;;;;;;8.90;3.27;;;-1.10;99.90;;;;;;5056096;28;20025;-65
2023/02/07 01:39:38;;;;;;;9.90;3.53;;;-1.10;99.90;;;;;;5054759;28;20036;-67
2023/02/07 01:42:04;;;;;;;8.93;3.20;;;-1.00;99.90;;;;;;5055415;28;20150;-66
2023/02/07 01:44:36;;;;;;;13.93;3.87;;;-1.00;99.90;;;;;;5038455;28;20355;-69
2023/02/07 01:47:02;;;;;;;14.15;3.88;;;-1.00;99.90;;;;;;5050221;28;20039;-65
2023/02/07 01:49:32;;;;;;;218.90;11.33;;;-1.10;99.90;;;;;;5040701;28;20335;-69
2023/02/07 01:52:04;;;;;;;327.33;17.45;;;-1.10;99.90;;;;;;5054877;28;20032;-65
2023/02/07 01:54:32;;;;;;;14.95;3.50;;;-1.20;99.90;;;;;;5049448;28;20037;-66
2023/02/07 01:57:03;;;;;;;10.23;3.70;;;-1.20;99.90;;;;;;5044120;28;20025;-67
2023/02/07 01:59:30;;;;;;;23.85;6.20;;;-1.20;99.90;;;;;;5037395;28;20025;-65
2023/02/07 02:01:57;;;;;;;;;;;-1.10;99.90;;;;;;5055230;28;20036;-66
2023/02/07 02:04:24;;;;;;;25.20;4.45;;;-1.20;99.90;;;;;;5052124;28;19919;-68
2023/02/07 02:06:50;;;;;;;8.27;3.83;;;-1.20;99.90;;;;;;5058050;28;20103;-68
2023/02/07 02:09:16;;;;;;;23.92;4.55;;;-1.30;99.90;;;;;;5052707;28;20071;-65
2023/02/07 02:11:48;;;;;;;6.47;3.17;;;-1.30;99.90;;;;;;5055666;28;20336;-67
2023/02/07 02:14:58;;;;;;;9.88;3.72;;;-1.30;99.90;;;;;;5037032;28;20178;-67
2023/02/07 02:17:49;;;;;;;6.60;3.65;;;-1.30;99.90;;;;;;4981724;28;20544;-67
2023/02/07 02:20:35;;;;;;;15.60;4.95;;;-1.30;99.90;;;;;;4988753;28;20077;-66
2023/02/07 02:23:29;;;;;;;11.68;4.13;;;-1.20;99.90;;;;;;4974465;28;20422;-66
2023/02/07 02:26:03;;;;;;;13.80;4.57;;;-1.20;99.90;;;;;;4978519;28;20045;-68
2023/02/07 02:28:44;;;;;;;11.77;3.70;;;-1.10;99.90;;;;;;4981517;28;20437;-66
2023/02/07 02:31:27;;;;;;;8.60;4.03;;;-1.10;99.90;;;;;;4976132;28;20038;-65
2023/02/07 02:34:02;;;;;;;11.45;4.88;;;-1.20;99.90;;;;;;4977672;28;20544;-67
2023/02/07 02:36:56;;;;;;;106.70;8.48;;;-1.20;99.90;;;;;;4987468;28;20037;-66
2023/02/07 02:39:24;;;;;;;265.65;16.70;;;-1.20;99.90;;;;;;4983145;28;20154;-66
2023/02/07 02:42:10;;;;;;;132.40;9.82;;;-1.50;99.90;;;;;;4973706;28;20034;-65
2023/02/07 02:44:52;;;;;;;191.10;13.50;;;-1.60;99.90;;;;;;4986328;28;20495;-66
2023/02/07 02:47:19;;;;;;;47.17;4.25;;;-1.70;99.90;;;;;;4955384;28;20034;-68
2023/02/07 02:49:46;;;;;;;5.05;3.25;;;-1.70;99.90;;;;;;4977342;28;20038;-66
2023/02/07 02:52:12;;;;;;;17.85;3.92;;;-1.70;99.90;;;;;;4974877;28;20428;-66
2023/02/07 02:54:39;;;;;;;11.75;4.75;;;-1.70;99.90;;;;;;5028668;28;20041;-66
2023/02/07 02:57:14;;;;;;;139.98;6.95;;;-1.60;99.90;;;;;;5053164;28;20033;-66
2023/02/07 03:00:08;;;;;;;9.20;4.28;;;-1.50;99.90;;;;;;5051017;28;20029;-66
2023/02/07 03:02:58;;;;;;;56.45;6.32;;;-1.40;99.90;;;;;;5048065;28;20033;-68
2023/02/07 03:05:27;;;;;;;231.15;14.50;;;-1.40;99.90;;;;;;5046296;28;20036;-66
2023/02/07 03:08:30;;;;;;;233.32;14.07;;;-1.50;99.90;;;;;;5052985;28;20339;-69
2023/02/07 03:11:13;;;;;;;57.75;7.43;;;-1.60;99.90;;;;;;5054565;28;20021;-65
2023/02/07 03:13:57;;;;;;;115.10;8.27;;;-1.60;99.90;;;;;;5048147;28;20029;-65
2023/02/07 03:16:53;;;;;;;44.88;6.28;;;-1.60;99.90;;;;;;5054223;28;20415;-74
2023/02/07 03:19:26;;;;;;;17.73;5.32;;;-1.70;99.90;;;;;;5053945;28;20060;-65
2023/02/07 03:21:56;;;;;;;10.95;5.18;;;-1.60;99.90;;;;;;5054953;28;20112;-65
2023/02/07 03:24:33;;;;;;;17.58;4.85;;;-1.60;99.90;;;;;;5049684;28;20051;-66
2023/02/07 03:27:03;;;;;;;;;;;-1.60;99.90;;;;;;5053605;28;20044;-66
2023/02/07 03:29:31;;;;;;;16.27;5.10;;;-1.70;99.90;;;;;;5052939;28;19944;-72
2023/02/07 03:32:01;;;;;;;9.95;5.22;;;-1.70;99.90;;;;;;5058186;28;20108;-67
2023/02/07 03:35:02;;;;;;;9.38;4.88;;;-1.70;99.90;;;;;;5057069;28;20060;-69
2023/02/07 03:37:34;;;;;;;13.93;5.50;;;-1.70;99.90;;;;;;5036975;28;20094;-71
2023/02/07 03:40:00;;;;;;;16.25;5.55;;;-1.70;99.90;;;;;;5051718;28;20030;-70
2023/02/07 03:42:38;;;;;;;15.30;6.22;;;-1.70;99.90;;;;;;5054052;28;20044;-69
2023/02/07 03:45:08;;;;;;;19.85;6.68;;;-1.60;99.90;;;;;;5052421;28;20067;-67
2023/02/07 03:47:34;;;;;;;19.60;6.55;;;-1.60;99.90;;;;;;5044492;28;20029;-66
2023/02/07 03:50:00;;;;;;;17.37;6.13;;;-1.70;99.90;;;;;;5053164;28;20075;-73
2023/02/07 03:52:25;;;;;;;33.73;6.03;;;-1.80;99.90;;;;;;5046808;28;20677;-68
2023/02/07 03:54:51;;;;;;;22.00;6.23;;;-1.90;99.90;;;;;;5049984;28;20022;-73
2023/02/07 03:57:17;;;;;;;17.33;4.30;;;-1.90;99.90;;;;;;5035658;28;20067;-72
2023/02/07 03:59:42;;;;;;;17.73;6.47;;;-2.00;99.90;;;;;;5054056;28;20051;-69
2023/02/07 04:02:08;;;;;;;18.33;4.77;;;-2.00;99.90;;;;;;5052281;28;20029;-71
2023/02/07 04:04:34;;;;;;;19.43;6.03;;;-2.00;99.90;;;;;;5058935;28;20028;-68
2023/02/07 04:06:59;;;;;;;17.90;5.67;;;-1.90;99.90;;;;;;5053215;28;20029;-72
2023/02/07 04:09:25;;;;;;;17.73;5.13;;;-1.80;99.90;;;;;;5053856;28;20025;-66
2023/02/07 04:11:51;;;;;;;21.17;6.43;;;-1.60;99.90;;;;;;5050747;28;20032;-74
2023/02/07 04:14:21;;;;;;;27.23;8.65;;;-1.40;99.90;;;;;;5052765;28;20025;-67
2023/02/07 04:16:48;;;;;;;31.25;6.43;;;-1.30;99.90;;;;;;5053732;28;20431;-69
2023/02/07 04:19:13;;;;;;;;;;;-1.20;99.90;;;;;;5052208;28;20609;-72
2023/02/07 04:21:39;;;;;;;18.85;6.32;;;-1.30;99.90;;;;;;5052561;28;19917;-73
2023/02/07 04:24:05;;;;;;;21.33;7.80;;;-1.30;99.90;;;;;;5035402;28;20049;-70
2023/02/07 04:26:31;;;;;;;33.30;5.90;;;-1.40;99.90;;;;;;5053818;28;20389;-74
2023/02/07 04:28:56;;;;;;;14.00;5.00;;;-1.40;99.90;;;;;;5053706;28;20036;-66
2023/02/07 04:31:22;;;;;;;28.07;8.03;;;-1.50;99.90;;;;;;5052967;28;20033;-69
2023/02/07 04:33:48;;;;;;;30.00;7.27;;;-1.50;99.90;;;;;;5062298;28;20029;-73
2023/02/07 04:36:14;;;;;;;32.03;7.50;;;-1.50;99.90;;;;;;5056877;28;20033;-69
2023/02/07 04:38:39;;;;;;;15.33;7.37;;;-1.50;99.90;;;;;;5057212;28;20060;-66
2023/02/07 04:41:06;;;;;;;29.83;9.13;;;-1.40;99.90;;;;;;5055480;28;20091;-70
2023/02/07 04:43:33;;;;;;;23.52;8.07;;;-1.30;99.90;;;;;;5056158;28;20292;-72
2023/02/07 04:45:59;;;;;;;28.63;7.72;;;-1.40;99.90;;;;;;5055725;28;20408;-70
2023/02/07 04:48:25;;;;;;;31.70;9.97;;;-1.40;99.90;;;;;;5056970;28;20033;-73
2023/02/07 04:50:51;;;;;;;25.00;8.20;;;-1.30;99.90;;;;;;5039301;28;20324;-71
2023/02/07 04:53:17;;;;;;;42.40;7.90;;;-1.20;99.90;;;;;;5055083;28;20029;-73
2023/02/07 04:55:46;;;;;;;27.17;6.23;;;-1.20;99.90;;;;;;5057267;28;20029;-70
2023/02/07 04:58:12;;;;;;;24.63;8.27;;;-1.30;99.90;;;;;;5032584;28;20078;-70
2023/02/07 05:00:37;;;;;;;20.20;9.30;;;-1.30;99.90;;;;;;5041920;28;20037;-71
2023/02/07 05:03:03;;;;;;;23.37;8.37;;;-1.40;99.90;;;;;;5058425;28;20107;-73
2023/02/07 05:05:28;;;;;;;27.17;9.03;;;-1.50;99.90;;;;;;5056846;28;20112;-66
2023/02/07 05:07:54;;;;;;;14.87;6.20;;;-1.60;99.90;;;;;;5056570;28;20189;-72
2023/02/07 05:10:20;;;;;;;21.33;6.70;;;-1.70;99.90;;;;;;5037133;28;20026;-69
2023/02/07 05:12:45;;;;;;;20.47;6.90;;;-1.70;99.90;;;;;;5052138;28;20033;-66
2023/02/07 05:15:11;;;;;;;136.43;9.73;;;-1.80;99.90;;;;;;5051056;28;20113;-73
2023/02/07 05:17:37;;;;;;;12.60;6.00;;;-1.90;99.90;;;;;;5055912;28;20059;-73
2023/02/07 05:20:05;;;;;;;11.82;5.40;;;-1.90;99.90;;;;;;5038889;28;20033;-74
2023/02/07 05:22:30;;;;;;;29.13;8.00;;;-1.90;99.90;;;;;;5054622;28;20826;-69
2023/02/07 05:24:56;;;;;;;26.73;7.60;;;-1.90;99.90;;;;;;5056953;28;20037;-66
2023/02/07 05:27:22;;;;;;;22.93;6.50;;;-1.80;99.90;;;;;;5055609;28;20021;-73
2023/02/07 05:29:47;;;;;;;25.87;6.93;;;-1.70;99.90;;;;;;5037587;28;20186;-65
2023/02/07 05:34:59;;;;;;;36.47;9.27;;;-1.70;99.90;;;;;;5055781;28;20027;-65
2023/02/07 05:37:25;;;;;;;22.00;8.50;;;-1.70;99.90;;;;;;5055006;28;20112;-73
2023/02/07 05:39:51;;;;;;;19.52;7.25;;;-1.80;99.90;;;;;;5034951;28;20200;-67
2023/02/07 05:42:17;;;;;;;14.80;6.50;;;-1.90;99.90;;;;;;5052151;28;20112;-69
2023/02/07 05:44:43;;;;;;;25.00;9.00;;;-1.80;99.90;;;;;;5048305;28;20033;-66
2023/02/07 05:47:09;;;;;;;23.65;9.25;;;-1.70;99.90;;;;;;5057438;28;20036;-71
2023/02/07 05:49:35;;;;;;;27.33;9.00;;;-1.60;99.90;;;;;;5055409;28;20054;-65
2023/02/07 05:52:00;;;;;;;29.43;9.50;;;-1.50;99.90;;;;;;5053130;28;20120;-73
2023/02/07 05:54:26;;;;;;;28.23;8.87;;;-1.60;99.90;;;;;;5055782;28;20543;-71
2023/02/07 05:56:52;;;;;;;22.93;6.60;;;-1.60;99.90;;;;;;5034748;28;20021;-67
2023/02/07 05:59:17;;;;;;;30.97;8.50;;;-1.60;99.90;;;;;;5062539;28;20115;-66
2023/02/07 06:01:43;;;;;;;27.27;10.37;;;-1.70;99.90;;;;;;5055616;28;20029;-70
2023/02/07 06:04:09;;;;;;;28.43;9.53;;;-1.60;99.90;;;;;;5047245;28;20044;-71
2023/02/07 06:06:35;;;;;;;32.70;8.73;;;-1.70;99.90;;;;;;5055268;28;20326;-66
2023/02/07 06:09:00;;;;;;;19.17;7.60;;;-1.80;99.90;;;;;;5047275;28;20029;-72
2023/02/07 06:11:26;;;;;;;16.37;7.33;;;-1.80;99.90;;;;;;5051557;28;20017;-72
2023/02/07 06:13:52;;;;;;;23.23;7.67;;;-1.80;99.90;;;;;;5035132;28;20028;-66
2023/02/07 06:16:17;;;;;;;25.93;6.90;;;-1.70;99.90;;;;;;5055514;28;20107;-72
2023/02/07 06:18:43;;;;;;;26.90;10.03;;;-1.70;99.90;;;;;;5049814;28;20107;-66
2023/02/07 06:21:09;;;;;;;32.97;7.73;;;-1.70;99.90;;;;;;5054596;28;20051;-69
2023/02/07 06:23:34;;;;;;;30.57;10.30;;;-1.70;99.90;;;;;;5055331;28;20029;-73
2023/02/07 06:26:00;;;;;;;22.53;8.10;;;-1.70;99.90;;;;;;5058683;28;20041;-66
2023/02/07 06:28:26;;;;;;;27.90;10.23;;;-1.70;99.90;;;;;;5050752;28;20029;-65
2023/02/07 06:30:52;;;;;;;26.77;10.37;;;-1.60;99.90;;;;;;5054630;28;20059;-66
2023/02/07 06:33:18;;;;;;;19.15;8.43;;;-1.70;99.90;;;;;;5054569;28;20025;-65
2023/02/07 06:35:46;;;;;;;26.48;10.55;;;-1.70;99.90;;;;;;5055265;28;22148;-73
2023/02/07 06:38:21;;;;;;;40.90;12.00;;;-1.70;99.90;;;;;;5048726;28;20020;-66
2023/02/07 06:40:47;;;;;;;27.98;10.43;;;-1.70;99.90;;;;;;5054777;28;20025;-72
2023/02/07 06:43:13;;;;;;;23.65;11.10;;;-1.70;99.90;;;;;;5051519;28;20453;-74
2023/02/07 06:45:39;;;;;;;32.00;11.25;;;-1.70;99.90;;;;;;5052572;28;20041;-67
2023/02/07 06:48:06;;;;;;;30.63;11.20;;;-1.70;99.90;;;;;;5059113;28;20491;-72
2023/02/07 06:50:31;;;;;;;27.05;7.90;;;-1.90;99.90;;;;;;5052316;28;20029;-67
2023/02/07 06:53:00;;;;;;;27.10;10.67;;;-2.00;99.90;;;;;;5050882;28;20124;-65
2023/02/07 06:55:31;;;;;;;27.08;10.75;;;-2.10;99.90;;;;;;5055953;28;20078;-68
2023/02/07 06:57:57;;;;;;;36.60;11.27;;;-2.10;99.90;;;;;;5056516;28;20029;-65
2023/02/07 07:00:23;;;;;;;20.57;9.37;;;-2.10;99.90;;;;;;5034010;28;20047;-73
2023/02/07 07:02:50;;;;;;;37.10;11.07;;;-2.00;99.90;;;;;;5043855;28;20021;-73
2023/02/07 07:05:16;;;;;;;31.98;11.80;;;-1.90;99.90;;;;;;5058101;28;20036;-76
2023/02/07 07:07:41;;;;;;;34.00;11.73;;;-1.90;99.90;;;;;;5051736;28;20036;-72
2023/02/07 07:10:07;;;;;;;33.47;11.37;;;-1.90;99.90;;;;;;5053613;28;20265;-66
2023/02/07 07:12:33;;;;;;;22.77;10.47;;;-1.90;99.90;;;;;;5038444;28;20036;-70
2023/02/07 07:14:59;;;;;;;29.57;11.77;;;-1.90;99.90;;;;;;5035193;28;20032;-70
2023/02/07 07:17:25;;;;;;;21.47;8.73;;;-1.90;99.90;;;;;;5053764;28;20448;-68
2023/02/07 07:19:50;;;;;;;28.00;12.07;;;-1.90;99.90;;;;;;5050708;28;20377;-66
2023/02/07 07:22:16;;;;;;;35.53;11.50;;;-1.90;99.90;;;;;;5053415;28;20285;-70
2023/02/07 07:24:42;;;;;;;23.80;9.00;;;-1.90;99.90;;;;;;5052533;28;20064;-65
2023/02/07 07:27:08;;;;;;;25.47;8.97;;;-1.80;99.90;;;;;;5047069;28;20546;-67
2023/02/07 07:29:33;;;;;;;24.73;11.10;;;-1.90;99.90;;;;;;5052805;28;20039;-66
2023/02/07 07:31:59;;;;;;;30.67;12.87;;;-1.90;99.90;;;;;;5052754;28;20421;-73
2023/02/07 07:34:25;;;;;;;35.87;11.43;;;-2.00;99.90;;;;;;5035305;28;20167;-66
2023/02/07 07:36:52;;;;;;;29.27;10.60;;;-2.00;99.90;;;;;;5059556;28;20056;-74
2023/02/07 07:39:19;;;;;;;26.17;9.52;;;-2.10;99.90;;;;;;5035360;28;20063;-73
2023/02/07 07:41:45;;;;;;;27.75;9.90;;;-2.10;99.90;;;;;;5035620;28;20071;-71
2023/02/07 07:44:11;;;;;;;32.90;10.63;;;-2.00;99.90;;;;;;5045515;28;20053;-72
2023/02/07 07:46:36;;;;;;;28.93;11.03;;;-1.90;99.90;;;;;;5047615;28;20300;-68
2023/02/07 07:49:02;;;;;;;36.40;11.03;;;-1.80;99.90;;;;;;5020781;28;20029;-67
2023/02/07 07:51:28;;;;;;;38.00;12.57;;;-1.80;99.90;;;;;;5052224;28;20029;-65
2023/02/07 07:53:53;;;;;;;32.17;10.40;;;-1.80;99.90;;;;;;5039540;28;20028;-71
2023/02/07 07:56:19;;;;;;;28.27;10.70;;;-1.70;99.90;;;;;;5016166;28;20072;-67
2023/02/07 07:58:47;;;;;;;29.43;10.77;;;-1.60;99.90;;;;;;5051919;28;20033;-70
2023/02/07 08:01:13;;;;;;;35.58;11.95;;;-1.60;99.90;;;;;;5035084;28;20024;-73
2023/02/07 08:03:38;;;;;;;23.93;8.70;;;-1.50;99.90;;;;;;5035430;28;20035;-66
2023/02/07 08:06:04;;;;;;;35.73;12.73;;;-1.40;99.90;;;;;;5047138;28;20033;-73
2023/02/07 08:08:30;;;;;;;27.20;9.70;;;-1.40;99.90;;;;;;5045639;28;20025;-71
2023/02/07 08:11:00;;;;;;;28.70;11.83;;;-1.40;99.90;;;;;;5046315;28;20029;-73
2023/02/07 08:13:26;;;;;;;30.92;11.55;;;-1.40;99.90;;;;;;5049423;28;20303;-69
2023/02/07 08:15:52;;;;;;;21.53;8.93;;;-1.40;99.90;;;;;;5053177;28;20021;-73
2023/02/07 08:18:17;;;;;;;29.10;9.03;;;-1.50;99.90;;;;;;5057796;28;20104;-73
2023/02/07 08:20:43;;;;;;;35.23;11.13;;;-1.40;99.90;;;;;;5052267;28;20021;-67
2023/02/07 08:23:09;;;;;;;19.73;9.17;;;-1.30;99.90;;;;;;5051728;28;20032;-65
2023/02/07 08:25:35;;;;;;;29.20;10.20;;;-1.20;99.90;;;;;;5050145;28;20218;-71
2023/02/07 08:28:00;;;;;;;22.73;8.97;;;-1.10;99.90;;;;;;5056403;28;20027;-72
2023/02/07 08:30:26;;;;;;;33.50;10.57;;;-1.10;99.90;;;;;;5057720;28;20020;-72
2023/02/07 08:32:54;;;;;;;29.73;9.00;;;-1.00;99.90;;;;;;5057376;28;20029;-72
2023/02/07 08:35:20;;;;;;;38.97;12.43;;;-0.90;99.90;;;;;;5048782;28;20057;-71
2023/02/07 08:37:46;;;;;;;41.10;14.82;;;-1.00;99.90;;;;;;5053261;28;20032;-72
2023/02/07 08:40:11;;;;;;;36.33;13.97;;;-0.90;99.90;;;;;;5045158;28;20372;-70
2023/02/07 08:42:37;;;;;;;37.13;13.00;;;-0.90;99.90;;;;;;5064028;28;20423;-68
2023/02/07 08:45:04;;;;;;;33.97;13.50;;;-0.80;99.90;;;;;;5056699;28;20027;-73
2023/02/07 08:47:30;;;;;;;37.53;14.10;;;-0.70;99.90;;;;;;5033866;28;20025;-69
2023/02/07 08:49:56;;;;;;;30.83;11.00;;;-0.60;99.90;;;;;;5052677;28;20036;-69
2023/02/07 08:52:22;;;;;;;42.27;13.73;;;-0.60;99.90;;;;;;5047305;28;20021;-68
2023/02/07 08:54:48;;;;;;;45.10;15.80;;;-0.60;99.90;;;;;;5047047;28;20318;-68
2023/02/07 08:57:14;;;;;;;35.33;11.73;;;-0.60;99.90;;;;;;5047795;28;20043;-73
2023/02/07 08:59:40;;;;;;;36.85;14.65;;;-0.50;99.90;;;;;;5049604;28;20314;-73
2023/02/07 09:02:06;;;;;;;47.70;15.82;;;-0.40;99.90;;;;;;5029607;28;20052;-66
2023/02/07 09:04:32;;;;;;;41.30;17.83;;;-0.30;99.90;;;;;;5050243;28;20028;-70
2023/02/07 09:06:58;;;;;;;48.93;14.30;;;-0.20;99.90;;;;;;5052375;28;20074;-66
2023/02/07 09:09:24;;;;;;;37.07;17.23;;;-0.10;99.90;;;;;;5047363;28;20024;-66
2023/02/07 09:11:49;;;;;;;52.90;21.00;;;0.00;99.90;;;;;;5050063;28;20074;-71
2023/02/07 09:14:15;;;;;;;39.23;15.70;;;0.10;99.90;;;;;;5044904;28;20349;-73
2023/02/07 09:16:41;;;;;;;45.43;18.10;;;0.20;99.90;;;;;;5054648;28;20056;-69
2023/02/07 09:19:07;;;;;;;62.90;23.67;;;0.20;99.90;;;;;;5037633;28;20402;-71
2023/02/07 09:21:32;;;;;;;44.87;17.10;;;0.30;99.90;;;;;;5034965;28;20025;-66
2023/02/07 09:23:58;;;;;;;80.03;28.93;;;0.30;99.90;;;;;;5058350;28;20114;-64
2023/02/07 09:26:25;;;;;;;40.40;18.33;;;0.30;99.90;;;;;;5047593;28;20418;-68
2023/02/07 09:28:51;;;;;;;59.72;18.60;;;0.40;99.90;;;;;;5050807;28;20034;-69
2023/02/07 09:31:17;;;;;;;36.50;11.83;;;0.50;99.90;;;;;;5055210;28;21670;-67
2023/02/07 09:33:42;;;;;;;39.87;13.50;;;0.50;99.90;;;;;;5051405;28;20403;-65
2023/02/07 09:36:26;;;;;;;43.77;16.90;;;0.50;99.90;;;;;;5045741;28;20057;-67
2023/02/07 09:38:52;;;;;;;649.53;214.63;;;0.60;99.90;;;;;;5053810;28;20163;-66
2023/02/07 09:41:24;;;;;;;131.05;51.95;;;0.70;99.90;;;;;;5054260;28;20036;-69
2023/02/07 09:44:24;;;;;;;63.92;30.00;;;0.80;99.90;;;;;;5037440;28;20036;-67
2023/02/07 09:47:01;;;;;;;51.70;22.58;;;0.90;99.90;;;;;;4994935;28;20143;-65
2023/02/07 09:49:49;;;;;;;51.88;21.38;;;0.90;99.90;;;;;;4950902;28;20024;-65
2023/02/07 09:52:21;;;;;;;44.10;17.88;;;1.00;99.90;;;;;;4949109;28;20017;-66
2023/02/07 09:54:54;;;;;;;47.80;19.35;;;1.10;99.90;;;;;;4950385;28;20150;-66
2023/02/07 09:57:36;;;;;;;41.17;17.33;;;1.10;99.90;;;;;;4933087;28;20024;-66
2023/02/07 10:00:08;;;;;;;54.20;19.30;;;1.40;99.90;;;;;;4947409;28;20931;-66
2023/02/07 10:02:43;;;;;;;57.95;20.63;;;1.90;99.90;;;;;;4949620;28;20115;-66
2023/02/07 10:05:16;;;;;;;46.88;21.17;;;2.50;99.90;;;;;;4948373;28;20037;-67
2023/02/07 10:07:46;;;;;;;43.35;17.08;;;2.90;99.90;;;;;;4947799;28;20028;-65
2023/02/07 10:10:31;;;;;;;53.50;17.45;;;3.20;99.90;;;;;;4950095;28;20042;-65
2023/02/07 10:12:59;;;;;;;39.97;16.85;;;3.30;99.90;;;;;;4949087;28;20399;-65
2023/02/07 10:15:37;;;;;;;56.42;24.42;;;3.50;99.90;;;;;;4950000;28;23699;-65
2023/02/07 10:18:29;;;;;;;46.05;17.10;;;3.50;99.90;;;;;;4944751;28;20028;-66
2023/02/07 10:21:11;;;;;;;39.63;17.08;;;3.50;99.90;;;;;;4934258;28;20516;-65
2023/02/07 10:23:40;;;;;;;53.28;19.52;;;3.60;99.90;;;;;;4948395;28;20160;-66
2023/02/07 10:26:31;;;;;;;51.90;19.15;;;3.70;99.90;;;;;;4949871;28;20348;-74
2023/02/07 10:29:25;;;;;;;46.55;18.10;;;3.70;99.90;;;;;;4929371;28;20642;-65
2023/02/07 10:31:54;;;;;;;63.58;27.98;;;3.50;99.90;;;;;;4949653;28;20133;-66
2023/02/07 10:34:43;;;;;;;47.88;17.27;;;3.60;99.90;;;;;;4947497;28;20031;-65
2023/02/07 10:37:21;;;;;;;45.72;16.85;;;3.60;99.90;;;;;;4948616;28;20031;-68
2023/02/07 10:40:01;;;;;;;38.92;16.90;;;3.70;99.90;;;;;;4953693;28;20327;-68
2023/02/07 10:42:28;;;;;;;41.20;16.80;;;3.70;99.90;;;;;;4961360;28;20023;-66
2023/02/07 10:44:53;;;;;;;35.90;15.02;;;3.70;99.90;;;;;;4947078;28;20041;-67
2023/02/07 10:47:19;;;;;;;37.77;16.70;;;3.70;99.90;;;;;;4945059;28;21712;-66
2023/02/07 10:49:52;;;;;;;33.47;15.13;;;3.80;99.90;;;;;;4946373;28;20120;-67
2023/02/07 10:52:35;;;;;;;30.25;14.13;;;3.80;99.90;;;;;;4947266;28;20764;-70
2023/02/07 10:55:04;;;;;;;31.70;12.98;;;3.90;99.90;;;;;;4948293;28;20029;-66
2023/02/07 10:57:31;;;;;;;36.67;13.90;;;3.90;99.90;;;;;;4948438;28;20052;-71
2023/02/07 11:00:11;;;;;;;30.52;12.55;;;4.10;99.90;;;;;;4948618;28;20043;-66
2023/02/07 11:02:47;;;;;;;31.58;13.48;;;4.00;99.90;;;;;;4943034;28;20025;-69
2023/02/07 11:05:16;;;;;;;28.83;12.35;;;4.10;99.90;;;;;;4943615;28;20059;-67
2023/02/07 11:07:58;;;;;;;31.30;12.55;;;4.00;99.90;;;;;;4949012;28;22272;-73
2023/02/07 11:10:26;;;;;;;28.63;12.90;;;4.10;99.90;;;;;;4931833;28;20356;-67
2023/02/07 11:12:57;;;;;;;30.55;13.35;;;4.20;99.90;;;;;;4951927;28;20120;-71
2023/02/07 11:15:34;;;;;;;27.60;11.52;;;4.30;99.90;;;;;;5023431;28;20062;-69
2023/02/07 11:18:00;;;;;;;;;;;4.40;99.90;;;;;;5052176;28;20548;-73
2023/02/07 11:20:36;;;;;;;23.75;10.27;;;4.40;99.90;;;;;;5047121;28;19920;-70
2023/02/07 11:23:13;;;;;;;28.33;11.70;;;4.50;99.90;;;;;;5008552;28;20087;-68
2023/02/07 11:25:42;;;;;;;21.10;11.05;;;4.60;99.90;;;;;;4947462;28;20479;-67
2023/02/07 11:28:27;;;;;;;30.58;12.20;;;4.70;99.90;;;;;;4945992;28;20017;-76
2023/02/07 11:30:57;;;;;;;28.23;12.20;;;4.70;99.90;;;;;;4950186;28;20031;-72
2023/02/07 11:33:28;;;;;;;35.83;13.27;;;4.80;99.90;;;;;;4946056;28;20039;-67
2023/02/07 11:36:19;;;;;;;26.77;12.25;;;4.90;99.90;;;;;;4950701;28;20032;-68
2023/02/07 11:38:48;;;;;;;26.25;11.20;;;5.00;99.90;;;;;;4946192;28;21425;-67
2023/02/07 11:41:26;;;;;;;28.63;12.30;;;5.00;99.90;;;;;;4949409;28;20959;-70
2023/02/07 11:44:01;;;;;;;23.05;10.93;;;5.00;99.90;;;;;;4952247;28;20021;-70
2023/02/07 11:46:38;;;;;;;23.83;10.57;;;5.00;99.90;;;;;;4934118;28;20637;-72
2023/02/07 11:49:22;;;;;;;25.15;10.68;;;5.20;99.90;;;;;;4951510;28;20225;-72
2023/02/07 11:51:57;;;;;;;22.05;10.98;;;5.40;99.90;;;;;;4950683;28;20017;-67
2023/02/07 11:54:24;;;;;;;23.90;10.60;;;5.60;99.90;;;;;;4947671;28;20047;-69
2023/02/07 11:56:54;;;;;;;22.13;9.98;;;5.60;99.90;;;;;;4944611;28;20059;-67
2023/02/07 11:59:22;;;;;;;18.58;9.38;;;5.70;99.90;;;;;;4940767;28;21699;-71
2023/02/07 12:01:55;;;;;;;20.85;8.80;;;5.80;99.90;;;;;;5040067;28;20017;-74
2023/02/07 12:04:36;;;;;;;19.25;8.18;;;5.80;99.90;;;;;;5054330;28;20040;-75
2023/02/07 12:07:38;;;;;;;17.70;7.40;;;5.90;99.90;;;;;;5054077;28;20075;-68
2023/02/07 12:10:14;;;;;;;17.27;8.63;;;6.00;99.90;;;;;;4918086;28;20128;-66
2023/02/07 12:12:48;;;;;;;18.75;9.05;;;6.00;99.90;;;;;;4868074;28;20034;-66
2023/02/07 12:15:16;;;;;;;18.30;8.57;;;6.10;99.90;;;;;;4864509;28;20311;-66
2023/02/07 12:17:56;;;;;;;18.52;7.88;;;6.20;99.90;;;;;;4867525;28;20069;-66
2023/02/07 12:20:47;;;;;;;14.50;6.93;;;6.30;99.90;;;;;;4854217;28;20138;-66
2023/02/07 12:23:34;;;;;;;21.33;7.70;;;6.40;99.90;;;;;;4846263;28;20030;-66
2023/02/07 12:26:23;;;;;;;16.88;7.50;;;6.40;99.90;;;;;;4866096;28;20141;-66
2023/02/07 12:29:13;;;;;;;22.98;8.60;;;6.40;99.90;;;;;;4865295;28;20122;-66
2023/02/07 12:32:12;;;;;;;14.85;7.10;;;6.40;99.90;;;;;;4864847;28;20980;-71
2023/02/07 12:35:00;;;;;;;16.42;6.93;;;6.40;99.90;;;;;;4864932;28;20093;-67
2023/02/07 12:37:41;;;;;;;23.40;8.95;;;6.30;99.90;;;;;;4866209;28;23328;-66
2023/02/07 12:40:12;;;;;;;18.85;8.70;;;6.40;99.90;;;;;;4849551;28;20128;-66
2023/02/07 12:42:42;;;;;;;16.23;8.75;;;6.40;99.90;;;;;;4866355;28;20054;-66
2023/02/07 12:45:17;;;;;;;19.25;8.38;;;6.30;99.90;;;;;;4884214;28;20044;-67
2023/02/07 12:48:08;;;;;;;26.85;9.38;;;6.30;99.90;;;;;;4940651;28;20021;-66
2023/02/07 12:50:40;;;;;;;19.25;8.57;;;6.30;99.90;;;;;;4945357;28;20722;-67
2023/02/07 12:53:21;;;;;;;22.58;7.93;;;6.40;99.90;;;;;;4948793;28;20024;-67
2023/02/07 12:56:05;;;;;;;20.27;9.10;;;6.40;99.90;;;;;;4947640;28;20107;-66
2023/02/07 12:58:46;;;;;;;18.52;8.55;;;6.40;99.90;;;;;;4946736;28;20742;-68